Jacksonville, FL (32219)

8:21 PM EDT on August 29, 2015 (GMT -0400)
Westlake | | Change Station
CLOSE
Current Station
Personal Weather Station
Location: Jacksonville, FL
Elevation: 91 ft
Nearby Weather Stations
Active Advisory: Areal Flood Advisory

Elev 91 ft 30.38 °N, 81.83 °W | Updated 14 minutes ago

Rain
Rain
78.5 °F
Feels Like 82 °F
N
2.0
Wind Variable Wind from SE
Gusts 4.0 mph

Today
High -- | Low -- °F
--% Chance of Precip.
Yesterday
High -- | Low -- °F
Precip. -- in
7:02 AM 7:53 PM
Full, 100% visible
Pressure 30.06 in
Visibility 10.0 miles
Clouds Scattered Clouds 2000 ft
Mostly Cloudy 11000 ft
Overcast 20000 ft
Heat Index 82 °F
Dew Point 76 °F
Humidity 93%
Rainfall 0.27 in
Snow Depth Not available.
UV 0.0 out of 12
Pollen 4.00 out of 12
Air Quality Not available.
Flu Activity Not available.
METAR KJAX 292356Z 07004KT 10SM TS SCT020CB BKN110 OVC200 26/24 A3006 RMK AO2 TSB17 SLP180 OCNL LTGIC VC S TS VC S MOV NW T02610239 10300 20261 53003
Pressure 30.06 in
Visibility 10.0 miles
Clouds Scattered Clouds 2000 ft
Mostly Cloudy 11000 ft
Overcast 20000 ft
Heat Index 82 °F
Dew Point 76 °F
Humidity 93%
Rainfall 0.27 in
Snow Depth Not available.
UV 0.0 out of 12
Pollen 4.00 out of 12
Air Quality Not available.
Flu Activity Not available.
METAR KJAX 292356Z 07004KT 10SM TS SCT020CB BKN110 OVC200 26/24 A3006 RMK AO2 TSB17 SLP180 OCNL LTGIC VC S TS VC S MOV NW T02610239 10300 20261 53003

10-Day Weather Forecast

×

Almanac

Astronomy

Aug. 29, 2015 Rise Set
Actual Time
Civil Twilight
Nautical Twilight
Astronomical Twilight
Moon
Length of Visible Light
Length of Day
Tomorrow will be .
, % of the Moon is Illuminated

Today's Extremes

State Highs State Lows

Community

WunderPhotos

Upload Photos

1,850,794 photos uploaded!

WunderBlogs® & News

Nearby

Air Quality

  Air Quality AQ Index Pollutant
Not available.

Snow Depth

Station Depth Elevation

Earthquake Activity

City Distance Mag. Time & Date
Minimum magnitude displayed is 2.5.

Coastal Water Temperatures

Place Temperature

Stations

Nearby Weather Stations

Station Location Temp. Windchill Dew Point Humidity Wind Precip. Elev Updated Type
                   
Areal Flood Advisory
Statement as of 7:33 PM EDT on August 29, 2015

The National Weather Service in Jacksonville has issued a

* Flood Advisory for...
central Duval County in northeastern Florida...

* until 930 PM EDT

* at 733 PM EDT... Doppler radar indicated heavy rain due to
thunderstorms. This will cause minor flooding in the advisory area.
Up to two inches of rain have already fallen.

* Some locations that will experience flooding include...
Jacksonville... Arlington and Tallyrand.

Lat... Lon 3038 8158 3030 8155 3028 8161 3036 8164


Enyedi